Air Navigation Services of Czech Republic
Airport: LKTB Updated:  20.01.2017 20:06:13  UTC
 METAR LKTB 20.01. 20:00 ...
METAR LKTB 202000Z 31001KT 6000 NSC M08/M10 Q1035 R27/31//95 NOSIG RMK REG QNH 1028=
 TAF LKTB 20.01. 17:00 ...
TAF LKTB 201700Z 2018/2200 VRB02KT 7000 SCT036      TEMPO 2100/2108 2500 BR NSC      PROB30 TEMPO 2102/2108 1200 BR NSC      BECMG 2121/2200 3000 BR SCT007=